sensor_id;sensor_type;location;lat;lon;timestamp;P1;durP1;ratioP1;P2;durP2;ratioP2
20042;SDS011;10182;52.896;6.496;2023-03-15T00:02:34;7.93;;;2.63;;
20042;SDS011;10182;52.896;6.496;2023-03-15T00:07:38;6.97;;;2.30;;
20042;SDS011;10182;52.896;6.496;2023-03-15T00:12:40;10.77;;;2.33;;
20042;SDS011;10182;52.896;6.496;2023-03-15T00:17:50;5.50;;;2.67;;
20042;SDS011;10182;52.896;6.496;2023-03-15T00:22:54;8.80;;;1.90;;
20042;SDS011;10182;52.896;6.496;2023-03-15T00:27:56;7.33;;;2.10;;
20042;SDS011;10182;52.896;6.496;2023-03-15T00:33:01;9.50;;;2.37;;
20042;SDS011;10182;52.896;6.496;2023-03-15T00:38:06;2.37;;;1.80;;
20042;SDS011;10182;52.896;6.496;2023-03-15T00:43:09;8.63;;;1.97;;
20042;SDS011;10182;52.896;6.496;2023-03-15T00:48:11;7.27;;;2.10;;
20042;SDS011;10182;52.896;6.496;2023-03-15T00:53:17;5.77;;;2.10;;
20042;SDS011;10182;52.896;6.496;2023-03-15T00:58:19;13.93;;;2.33;;
20042;SDS011;10182;52.896;6.496;2023-03-15T01:03:23;4.53;;;1.70;;
20042;SDS011;10182;52.896;6.496;2023-03-15T01:08:27;7.53;;;1.80;;
20042;SDS011;10182;52.896;6.496;2023-03-15T01:13:29;7.77;;;2.03;;
20042;SDS011;10182;52.896;6.496;2023-03-15T01:18:31;8.77;;;1.63;;
20042;SDS011;10182;52.896;6.496;2023-03-15T01:23:35;9.83;;;1.70;;
20042;SDS011;10182;52.896;6.496;2023-03-15T01:28:37;9.80;;;2.03;;
20042;SDS011;10182;52.896;6.496;2023-03-15T01:33:39;9.77;;;1.57;;
20042;SDS011;10182;52.896;6.496;2023-03-15T01:38:42;7.27;;;1.63;;
20042;SDS011;10182;52.896;6.496;2023-03-15T01:43:44;7.60;;;2.37;;
20042;SDS011;10182;52.896;6.496;2023-03-15T01:48:53;9.27;;;2.03;;
20042;SDS011;10182;52.896;6.496;2023-03-15T01:54:05;7.53;;;1.60;;
20042;SDS011;10182;52.896;6.496;2023-03-15T01:59:12;7.93;;;1.53;;
20042;SDS011;10182;52.896;6.496;2023-03-15T02:04:17;7.83;;;2.40;;
20042;SDS011;10182;52.896;6.496;2023-03-15T02:09:26;12.50;;;2.07;;
20042;SDS011;10182;52.896;6.496;2023-03-15T02:14:36;4.73;;;1.27;;
20042;SDS011;10182;52.896;6.496;2023-03-15T02:19:45;5.83;;;1.30;;
20042;SDS011;10182;52.896;6.496;2023-03-15T02:24:57;8.73;;;2.20;;
20042;SDS011;10182;52.896;6.496;2023-03-15T02:30:10;6.80;;;1.50;;
20042;SDS011;10182;52.896;6.496;2023-03-15T02:35:21;11.37;;;2.40;;
20042;SDS011;10182;52.896;6.496;2023-03-15T02:40:25;6.43;;;1.60;;
20042;SDS011;10182;52.896;6.496;2023-03-15T02:45:29;8.00;;;1.67;;
20042;SDS011;10182;52.896;6.496;2023-03-15T02:50:34;6.17;;;1.53;;
20042;SDS011;10182;52.896;6.496;2023-03-15T02:55:36;5.63;;;1.43;;
20042;SDS011;10182;52.896;6.496;2023-03-15T03:00:40;5.37;;;1.50;;
20042;SDS011;10182;52.896;6.496;2023-03-15T03:05:44;9.10;;;1.77;;
20042;SDS011;10182;52.896;6.496;2023-03-15T03:10:46;5.70;;;1.53;;
20042;SDS011;10182;52.896;6.496;2023-03-15T03:15:50;5.63;;;1.40;;
20042;SDS011;10182;52.896;6.496;2023-03-15T03:20:57;6.20;;;1.27;;
20042;SDS011;10182;52.896;6.496;2023-03-15T03:26:00;9.53;;;1.63;;
20042;SDS011;10182;52.896;6.496;2023-03-15T03:31:03;6.70;;;2.20;;
20042;SDS011;10182;52.896;6.496;2023-03-15T03:36:06;10.03;;;2.93;;
20042;SDS011;10182;52.896;6.496;2023-03-15T03:41:08;8.77;;;1.50;;
20042;SDS011;10182;52.896;6.496;2023-03-15T03:46:12;13.77;;;1.50;;
20042;SDS011;10182;52.896;6.496;2023-03-15T03:51:15;14.47;;;3.10;;
20042;SDS011;10182;52.896;6.496;2023-03-15T03:56:17;5.83;;;1.80;;
20042;SDS011;10182;52.896;6.496;2023-03-15T04:01:23;8.57;;;2.53;;
20042;SDS011;10182;52.896;6.496;2023-03-15T04:06:25;7.60;;;1.87;;
20042;SDS011;10182;52.896;6.496;2023-03-15T04:11:27;6.73;;;1.73;;
20042;SDS011;10182;52.896;6.496;2023-03-15T04:16:31;7.00;;;1.77;;
20042;SDS011;10182;52.896;6.496;2023-03-15T04:21:36;6.33;;;1.60;;
20042;SDS011;10182;52.896;6.496;2023-03-15T04:26:38;7.83;;;1.50;;
20042;SDS011;10182;52.896;6.496;2023-03-15T04:31:42;8.17;;;2.70;;
20042;SDS011;10182;52.896;6.496;2023-03-15T04:36:46;6.77;;;1.63;;
20042;SDS011;10182;52.896;6.496;2023-03-15T04:41:48;9.17;;;2.07;;
20042;SDS011;10182;52.896;6.496;2023-03-15T04:46:52;9.87;;;1.73;;
20042;SDS011;10182;52.896;6.496;2023-03-15T04:51:57;3.97;;;1.47;;
20042;SDS011;10182;52.896;6.496;2023-03-15T04:56:59;3.73;;;1.50;;
20042;SDS011;10182;52.896;6.496;2023-03-15T05:02:02;4.53;;;1.57;;
20042;SDS011;10182;52.896;6.496;2023-03-15T05:07:05;9.97;;;2.17;;
20042;SDS011;10182;52.896;6.496;2023-03-15T05:12:11;3.20;;;1.30;;
20042;SDS011;10182;52.896;6.496;2023-03-15T05:17:15;4.50;;;1.80;;
20042;SDS011;10182;52.896;6.496;2023-03-15T05:22:17;7.47;;;1.57;;
20042;SDS011;10182;52.896;6.496;2023-03-15T05:27:24;5.40;;;1.20;;
20042;SDS011;10182;52.896;6.496;2023-03-15T05:32:29;7.20;;;1.60;;
20042;SDS011;10182;52.896;6.496;2023-03-15T05:37:33;4.27;;;1.53;;
20042;SDS011;10182;52.896;6.496;2023-03-15T05:42:35;6.27;;;1.83;;
20042;SDS011;10182;52.896;6.496;2023-03-15T05:47:42;7.67;;;2.00;;
20042;SDS011;10182;52.896;6.496;2023-03-15T05:52:45;3.10;;;1.20;;
20042;SDS011;10182;52.896;6.496;2023-03-15T05:57:50;5.90;;;1.60;;
20042;SDS011;10182;52.896;6.496;2023-03-15T06:02:54;7.03;;;1.70;;
20042;SDS011;10182;52.896;6.496;2023-03-15T06:07:55;3.10;;;1.47;;
20042;SDS011;10182;52.896;6.496;2023-03-15T06:12:57;6.10;;;1.30;;
20042;SDS011;10182;52.896;6.496;2023-03-15T06:18:00;4.73;;;1.20;;
20042;SDS011;10182;52.896;6.496;2023-03-15T06:23:03;5.73;;;1.33;;
20042;SDS011;10182;52.896;6.496;2023-03-15T06:28:05;5.77;;;1.93;;
20042;SDS011;10182;52.896;6.496;2023-03-15T06:33:08;3.23;;;1.50;;
20042;SDS011;10182;52.896;6.496;2023-03-15T06:38:14;5.43;;;1.33;;
20042;SDS011;10182;52.896;6.496;2023-03-15T06:43:16;5.10;;;1.50;;
20042;SDS011;10182;52.896;6.496;2023-03-15T06:48:20;4.13;;;1.10;;
20042;SDS011;10182;52.896;6.496;2023-03-15T06:53:21;5.80;;;1.53;;
20042;SDS011;10182;52.896;6.496;2023-03-15T06:58:23;6.27;;;1.50;;
20042;SDS011;10182;52.896;6.496;2023-03-15T07:03:27;6.47;;;1.53;;
20042;SDS011;10182;52.896;6.496;2023-03-15T07:08:28;8.07;;;1.77;;
20042;SDS011;10182;52.896;6.496;2023-03-15T07:13:34;8.40;;;1.53;;
20042;SDS011;10182;52.896;6.496;2023-03-15T07:18:40;6.43;;;1.80;;
20042;SDS011;10182;52.896;6.496;2023-03-15T07:23:42;7.30;;;1.97;;
20042;SDS011;10182;52.896;6.496;2023-03-15T07:28:44;5.70;;;1.50;;
20042;SDS011;10182;52.896;6.496;2023-03-15T07:33:51;9.13;;;2.13;;
20042;SDS011;10182;52.896;6.496;2023-03-15T07:38:53;6.17;;;1.67;;
20042;SDS011;10182;52.896;6.496;2023-03-15T07:43:55;5.33;;;1.77;;
20042;SDS011;10182;52.896;6.496;2023-03-15T07:48:58;4.83;;;1.47;;
20042;SDS011;10182;52.896;6.496;2023-03-15T07:54:00;8.60;;;2.07;;
20042;SDS011;10182;52.896;6.496;2023-03-15T07:59:05;4.17;;;1.40;;
20042;SDS011;10182;52.896;6.496;2023-03-15T08:04:19;7.53;;;1.90;;
20042;SDS011;10182;52.896;6.496;2023-03-15T08:09:22;8.73;;;1.73;;
20042;SDS011;10182;52.896;6.496;2023-03-15T08:14:27;7.53;;;1.80;;
20042;SDS011;10182;52.896;6.496;2023-03-15T08:19:34;13.37;;;2.23;;
20042;SDS011;10182;52.896;6.496;2023-03-15T08:24:36;8.43;;;2.33;;
20042;SDS011;10182;52.896;6.496;2023-03-15T08:29:38;7.63;;;1.80;;
20042;SDS011;10182;52.896;6.496;2023-03-15T08:34:42;5.03;;;1.87;;
20042;SDS011;10182;52.896;6.496;2023-03-15T08:39:44;8.70;;;2.23;;
20042;SDS011;10182;52.896;6.496;2023-03-15T08:44:46;9.53;;;1.93;;
20042;SDS011;10182;52.896;6.496;2023-03-15T08:49:49;5.67;;;1.60;;
20042;SDS011;10182;52.896;6.496;2023-03-15T08:54:52;4.87;;;1.50;;
20042;SDS011;10182;52.896;6.496;2023-03-15T08:59:54;6.83;;;1.30;;
20042;SDS011;10182;52.896;6.496;2023-03-15T09:04:58;6.23;;;1.07;;
20042;SDS011;10182;52.896;6.496;2023-03-15T09:10:00;3.60;;;0.97;;
20042;SDS011;10182;52.896;6.496;2023-03-15T09:15:04;5.87;;;1.50;;
20042;SDS011;10182;52.896;6.496;2023-03-15T09:20:08;5.30;;;1.53;;
20042;SDS011;10182;52.896;6.496;2023-03-15T09:25:14;2.50;;;1.30;;
20042;SDS011;10182;52.896;6.496;2023-03-15T09:30:16;5.60;;;1.20;;
20042;SDS011;10182;52.896;6.496;2023-03-15T09:35:26;5.50;;;1.30;;
20042;SDS011;10182;52.896;6.496;2023-03-15T09:40:28;3.73;;;1.20;;
20042;SDS011;10182;52.896;6.496;2023-03-15T09:45:41;6.20;;;2.10;;
20042;SDS011;10182;52.896;6.496;2023-03-15T09:50:59;3.97;;;1.30;;
20042;SDS011;10182;52.896;6.496;2023-03-15T09:56:15;5.83;;;1.20;;
20042;SDS011;10182;52.896;6.496;2023-03-15T10:01:24;5.27;;;1.60;;
20042;SDS011;10182;52.896;6.496;2023-03-15T10:06:34;5.40;;;1.97;;
20042;SDS011;10182;52.896;6.496;2023-03-15T10:11:41;9.03;;;2.37;;
20042;SDS011;10182;52.896;6.496;2023-03-15T10:16:50;6.73;;;1.77;;
20042;SDS011;10182;52.896;6.496;2023-03-15T10:21:55;4.50;;;1.40;;
20042;SDS011;10182;52.896;6.496;2023-03-15T10:27:06;2.40;;;1.30;;
20042;SDS011;10182;52.896;6.496;2023-03-15T10:32:19;7.00;;;1.50;;
20042;SDS011;10182;52.896;6.496;2023-03-15T10:37:29;6.53;;;1.60;;
20042;SDS011;10182;52.896;6.496;2023-03-15T10:42:32;6.27;;;1.33;;
20042;SDS011;10182;52.896;6.496;2023-03-15T10:47:39;5.43;;;1.43;;
20042;SDS011;10182;52.896;6.496;2023-03-15T10:52:45;4.57;;;1.23;;
20042;SDS011;10182;52.896;6.496;2023-03-15T10:57:50;9.70;;;1.40;;
20042;SDS011;10182;52.896;6.496;2023-03-15T11:03:04;5.30;;;1.57;;
20042;SDS011;10182;52.896;6.496;2023-03-15T11:08:18;6.37;;;1.60;;
20042;SDS011;10182;52.896;6.496;2023-03-15T11:13:23;4.10;;;1.30;;
20042;SDS011;10182;52.896;6.496;2023-03-15T11:18:34;4.20;;;1.80;;
20042;SDS011;10182;52.896;6.496;2023-03-15T11:23:39;2.63;;;0.90;;
20042;SDS011;10182;52.896;6.496;2023-03-15T11:28:51;5.50;;;1.40;;
20042;SDS011;10182;52.896;6.496;2023-03-15T11:33:59;5.00;;;1.27;;
20042;SDS011;10182;52.896;6.496;2023-03-15T11:39:09;5.83;;;1.50;;
20042;SDS011;10182;52.896;6.496;2023-03-15T11:44:16;6.13;;;0.83;;
20042;SDS011;10182;52.896;6.496;2023-03-15T11:49:39;5.80;;;1.67;;
20042;SDS011;10182;52.896;6.496;2023-03-15T11:54:51;5.70;;;1.27;;
20042;SDS011;10182;52.896;6.496;2023-03-15T11:59:56;6.33;;;1.60;;
20042;SDS011;10182;52.896;6.496;2023-03-15T12:10:46;4.33;;;1.50;;
20042;SDS011;10182;52.896;6.496;2023-03-15T12:15:50;3.50;;;0.97;;
20042;SDS011;10182;52.896;6.496;2023-03-15T12:21:08;8.80;;;1.30;;
20042;SDS011;10182;52.896;6.496;2023-03-15T12:26:26;7.60;;;1.33;;
20042;SDS011;10182;52.896;6.496;2023-03-15T12:31:43;5.20;;;1.47;;
20042;SDS011;10182;52.896;6.496;2023-03-15T12:36:57;6.23;;;1.73;;
20042;SDS011;10182;52.896;6.496;2023-03-15T12:42:10;5.20;;;1.40;;
20042;SDS011;10182;52.896;6.496;2023-03-15T12:47:14;6.13;;;1.23;;
20042;SDS011;10182;52.896;6.496;2023-03-15T12:52:26;4.30;;;1.23;;
20042;SDS011;10182;52.896;6.496;2023-03-15T12:57:44;6.27;;;1.53;;
20042;SDS011;10182;52.896;6.496;2023-03-15T13:02:50;3.30;;;1.23;;
20042;SDS011;10182;52.896;6.496;2023-03-15T13:08:07;6.13;;;1.70;;
20042;SDS011;10182;52.896;6.496;2023-03-15T13:13:16;3.03;;;1.23;;
20042;SDS011;10182;52.896;6.496;2023-03-15T13:18:23;4.20;;;1.10;;
20042;SDS011;10182;52.896;6.496;2023-03-15T13:23:30;5.87;;;1.43;;
20042;SDS011;10182;52.896;6.496;2023-03-15T13:28:36;2.83;;;1.47;;
20042;SDS011;10182;52.896;6.496;2023-03-15T13:33:42;4.57;;;1.50;;
20042;SDS011;10182;52.896;6.496;2023-03-15T13:38:51;9.73;;;1.83;;
20042;SDS011;10182;52.896;6.496;2023-03-15T13:43:57;4.63;;;1.90;;
20042;SDS011;10182;52.896;6.496;2023-03-15T13:49:04;8.67;;;1.67;;
20042;SDS011;10182;52.896;6.496;2023-03-15T13:54:06;3.33;;;1.43;;
20042;SDS011;10182;52.896;6.496;2023-03-15T13:59:15;6.80;;;1.37;;
20042;SDS011;10182;52.896;6.496;2023-03-15T14:04:19;2.73;;;1.10;;
20042;SDS011;10182;52.896;6.496;2023-03-15T14:09:25;5.17;;;1.20;;
20042;SDS011;10182;52.896;6.496;2023-03-15T14:14:30;4.83;;;1.23;;
20042;SDS011;10182;52.896;6.496;2023-03-15T14:19:36;5.63;;;1.50;;
20042;SDS011;10182;52.896;6.496;2023-03-15T14:24:38;3.13;;;1.37;;
20042;SDS011;10182;52.896;6.496;2023-03-15T14:29:45;3.60;;;1.50;;
20042;SDS011;10182;52.896;6.496;2023-03-15T14:34:50;5.03;;;2.13;;
20042;SDS011;10182;52.896;6.496;2023-03-15T14:40:14;3.63;;;1.43;;
20042;SDS011;10182;52.896;6.496;2023-03-15T14:45:21;5.47;;;1.50;;
20042;SDS011;10182;52.896;6.496;2023-03-15T14:50:24;6.37;;;1.70;;
20042;SDS011;10182;52.896;6.496;2023-03-15T14:55:29;5.30;;;1.50;;
20042;SDS011;10182;52.896;6.496;2023-03-15T15:00:35;3.53;;;1.53;;
20042;SDS011;10182;52.896;6.496;2023-03-15T15:05:37;5.80;;;1.40;;
20042;SDS011;10182;52.896;6.496;2023-03-15T15:10:39;4.47;;;1.33;;
20042;SDS011;10182;52.896;6.496;2023-03-15T15:15:44;5.70;;;1.63;;
20042;SDS011;10182;52.896;6.496;2023-03-15T15:20:45;9.63;;;1.60;;
20042;SDS011;10182;52.896;6.496;2023-03-15T15:25:54;4.37;;;1.60;;
20042;SDS011;10182;52.896;6.496;2023-03-15T15:31:01;4.53;;;1.37;;
20042;SDS011;10182;52.896;6.496;2023-03-15T15:36:05;4.30;;;1.37;;
20042;SDS011;10182;52.896;6.496;2023-03-15T15:41:14;6.10;;;1.93;;
20042;SDS011;10182;52.896;6.496;2023-03-15T15:46:26;4.23;;;1.37;;
20042;SDS011;10182;52.896;6.496;2023-03-15T15:51:29;3.50;;;1.40;;
20042;SDS011;10182;52.896;6.496;2023-03-15T15:56:41;5.13;;;1.40;;
20042;SDS011;10182;52.896;6.496;2023-03-15T16:01:49;3.23;;;1.20;;
20042;SDS011;10182;52.896;6.496;2023-03-15T16:06:52;4.73;;;2.97;;
20042;SDS011;10182;52.896;6.496;2023-03-15T16:11:56;3.70;;;1.43;;
20042;SDS011;10182;52.896;6.496;2023-03-15T16:17:00;4.90;;;1.70;;
20042;SDS011;10182;52.896;6.496;2023-03-15T16:22:02;3.90;;;1.90;;
20042;SDS011;10182;52.896;6.496;2023-03-15T16:27:05;5.23;;;1.37;;
20042;SDS011;10182;52.896;6.496;2023-03-15T16:32:11;7.00;;;2.30;;
20042;SDS011;10182;52.896;6.496;2023-03-15T16:37:14;4.17;;;1.60;;
20042;SDS011;10182;52.896;6.496;2023-03-15T16:42:20;5.90;;;1.80;;
20042;SDS011;10182;52.896;6.496;2023-03-15T16:47:24;4.40;;;1.30;;
20042;SDS011;10182;52.896;6.496;2023-03-15T16:52:26;6.27;;;1.97;;
20042;SDS011;10182;52.896;6.496;2023-03-15T16:57:28;5.97;;;2.00;;
20042;SDS011;10182;52.896;6.496;2023-03-15T17:02:32;2.47;;;1.30;;
20042;SDS011;10182;52.896;6.496;2023-03-15T17:07:34;4.17;;;1.20;;
20042;SDS011;10182;52.896;6.496;2023-03-15T17:12:39;4.70;;;1.50;;
20042;SDS011;10182;52.896;6.496;2023-03-15T17:17:44;3.43;;;1.50;;
20042;SDS011;10182;52.896;6.496;2023-03-15T17:22:46;4.83;;;1.53;;
20042;SDS011;10182;52.896;6.496;2023-03-15T17:27:49;2.90;;;1.70;;
20042;SDS011;10182;52.896;6.496;2023-03-15T17:32:53;6.10;;;2.80;;
20042;SDS011;10182;52.896;6.496;2023-03-15T17:37:56;3.73;;;1.50;;
20042;SDS011;10182;52.896;6.496;2023-03-15T17:42:58;6.53;;;3.50;;
20042;SDS011;10182;52.896;6.496;2023-03-15T17:48:06;14.00;;;6.10;;
20042;SDS011;10182;52.896;6.496;2023-03-15T17:53:10;14.43;;;8.13;;
20042;SDS011;10182;52.896;6.496;2023-03-15T17:58:18;8.70;;;5.20;;
20042;SDS011;10182;52.896;6.496;2023-03-15T18:03:23;5.53;;;4.87;;
20042;SDS011;10182;52.896;6.496;2023-03-15T18:08:32;10.53;;;7.23;;
20042;SDS011;10182;52.896;6.496;2023-03-15T18:13:34;14.40;;;9.47;;
20042;SDS011;10182;52.896;6.496;2023-03-15T18:18:38;14.00;;;8.37;;
20042;SDS011;10182;52.896;6.496;2023-03-15T18:23:40;8.70;;;6.10;;
20042;SDS011;10182;52.896;6.496;2023-03-15T18:28:47;15.13;;;7.60;;
20042;SDS011;10182;52.896;6.496;2023-03-15T18:33:51;15.57;;;7.67;;
20042;SDS011;10182;52.896;6.496;2023-03-15T18:38:53;9.83;;;4.90;;
20042;SDS011;10182;52.896;6.496;2023-03-15T18:43:56;9.17;;;3.83;;
20042;SDS011;10182;52.896;6.496;2023-03-15T18:49:00;10.40;;;4.67;;
20042;SDS011;10182;52.896;6.496;2023-03-15T18:54:02;12.20;;;4.50;;
20042;SDS011;10182;52.896;6.496;2023-03-15T18:59:05;4.87;;;2.70;;
20042;SDS011;10182;52.896;6.496;2023-03-15T19:04:08;5.17;;;2.90;;
20042;SDS011;10182;52.896;6.496;2023-03-15T19:09:11;10.37;;;5.10;;
20042;SDS011;10182;52.896;6.496;2023-03-15T19:14:13;14.97;;;8.17;;
20042;SDS011;10182;52.896;6.496;2023-03-15T19:19:16;26.67;;;12.87;;
20042;SDS011;10182;52.896;6.496;2023-03-15T19:24:18;8.73;;;4.07;;
20042;SDS011;10182;52.896;6.496;2023-03-15T19:29:23;7.00;;;4.53;;
20042;SDS011;10182;52.896;6.496;2023-03-15T19:34:29;6.47;;;3.20;;
20042;SDS011;10182;52.896;6.496;2023-03-15T19:39:31;10.33;;;4.20;;
20042;SDS011;10182;52.896;6.496;2023-03-15T19:44:36;5.33;;;2.97;;
20042;SDS011;10182;52.896;6.496;2023-03-15T19:49:40;5.60;;;3.83;;
20042;SDS011;10182;52.896;6.496;2023-03-15T19:54:45;14.73;;;7.50;;
20042;SDS011;10182;52.896;6.496;2023-03-15T19:59:47;17.67;;;12.17;;
20042;SDS011;10182;52.896;6.496;2023-03-15T20:04:51;13.97;;;8.83;;
20042;SDS011;10182;52.896;6.496;2023-03-15T20:09:53;7.87;;;5.60;;
20042;SDS011;10182;52.896;6.496;2023-03-15T20:14:55;11.87;;;6.37;;
20042;SDS011;10182;52.896;6.496;2023-03-15T20:19:59;9.77;;;6.03;;
20042;SDS011;10182;52.896;6.496;2023-03-15T20:25:00;10.23;;;7.20;;
20042;SDS011;10182;52.896;6.496;2023-03-15T20:30:03;17.07;;;9.77;;
20042;SDS011;10182;52.896;6.496;2023-03-15T20:35:09;37.60;;;16.60;;
20042;SDS011;10182;52.896;6.496;2023-03-15T20:40:14;33.90;;;16.47;;
20042;SDS011;10182;52.896;6.496;2023-03-15T20:45:16;48.20;;;21.43;;
20042;SDS011;10182;52.896;6.496;2023-03-15T20:50:20;24.60;;;10.90;;
20042;SDS011;10182;52.896;6.496;2023-03-15T20:55:21;15.77;;;6.87;;
20042;SDS011;10182;52.896;6.496;2023-03-15T21:00:26;24.20;;;12.50;;
20042;SDS011;10182;52.896;6.496;2023-03-15T21:05:33;13.70;;;7.30;;
20042;SDS011;10182;52.896;6.496;2023-03-15T21:10:36;7.80;;;4.37;;
20042;SDS011;10182;52.896;6.496;2023-03-15T21:15:43;10.80;;;5.53;;
20042;SDS011;10182;52.896;6.496;2023-03-15T21:20:53;7.03;;;4.47;;
20042;SDS011;10182;52.896;6.496;2023-03-15T21:25:57;8.47;;;5.27;;
20042;SDS011;10182;52.896;6.496;2023-03-15T21:31:01;7.97;;;3.93;;
20042;SDS011;10182;52.896;6.496;2023-03-15T21:36:06;9.30;;;4.50;;
20042;SDS011;10182;52.896;6.496;2023-03-15T21:41:08;7.77;;;3.43;;
20042;SDS011;10182;52.896;6.496;2023-03-15T21:46:11;8.67;;;3.67;;
20042;SDS011;10182;52.896;6.496;2023-03-15T21:51:16;4.47;;;2.97;;
20042;SDS011;10182;52.896;6.496;2023-03-15T21:56:18;10.53;;;3.17;;
20042;SDS011;10182;52.896;6.496;2023-03-15T22:01:20;14.03;;;5.53;;
20042;SDS011;10182;52.896;6.496;2023-03-15T22:06:41;11.40;;;5.40;;
20042;SDS011;10182;52.896;6.496;2023-03-15T22:11:43;14.50;;;5.23;;
20042;SDS011;10182;52.896;6.496;2023-03-15T22:16:46;9.57;;;5.83;;
20042;SDS011;10182;52.896;6.496;2023-03-15T22:21:52;10.00;;;4.30;;
20042;SDS011;10182;52.896;6.496;2023-03-15T22:26:56;6.20;;;4.00;;
20042;SDS011;10182;52.896;6.496;2023-03-15T22:32:01;7.20;;;4.37;;
20042;SDS011;10182;52.896;6.496;2023-03-15T22:37:07;11.23;;;4.77;;
20042;SDS011;10182;52.896;6.496;2023-03-15T22:42:09;6.73;;;3.40;;
20042;SDS011;10182;52.896;6.496;2023-03-15T22:47:11;8.97;;;3.60;;
20042;SDS011;10182;52.896;6.496;2023-03-15T22:52:15;5.47;;;2.93;;
20042;SDS011;10182;52.896;6.496;2023-03-15T22:57:18;4.60;;;2.80;;
20042;SDS011;10182;52.896;6.496;2023-03-15T23:02:20;6.73;;;3.03;;
20042;SDS011;10182;52.896;6.496;2023-03-15T23:07:24;4.87;;;2.80;;
20042;SDS011;10182;52.896;6.496;2023-03-15T23:12:26;5.80;;;2.90;;
20042;SDS011;10182;52.896;6.496;2023-03-15T23:17:33;9.60;;;3.03;;
20042;SDS011;10182;52.896;6.496;2023-03-15T23:22:40;8.20;;;3.00;;
20042;SDS011;10182;52.896;6.496;2023-03-15T23:27:42;5.27;;;3.20;;
20042;SDS011;10182;52.896;6.496;2023-03-15T23:32:43;4.83;;;3.07;;
20042;SDS011;10182;52.896;6.496;2023-03-15T23:37:47;8.00;;;3.40;;
20042;SDS011;10182;52.896;6.496;2023-03-15T23:42:50;6.00;;;3.23;;
20042;SDS011;10182;52.896;6.496;2023-03-15T23:47:57;7.43;;;3.07;;
20042;SDS011;10182;52.896;6.496;2023-03-15T23:53:03;8.23;;;2.80;;
20042;SDS011;10182;52.896;6.496;2023-03-15T23:58:05;8.10;;;3.20;;
